Time;durP1;ratioP1;P1;durP2;ratioP2;P2;SDS_P1;SDS_P2;PMS_P1;PMS_P2;Temp;Humidity;BMP_temperature;BMP_pressure;BME280_temperature;BME280_humidity;BME280_pressure;Samples;Min_cycle;Max_cycle;Signal;HPM_P1;HPM_P2
2023/01/04 00:01:51;;;;;;;4.47;1.60;;;;;;;;;;5074663;28;20122;-78
2023/01/04 00:04:17;;;;;;;1.55;1.38;;;;;;;;;;5074614;28;20032;-78
2023/01/04 00:06:42;;;;;;;2.78;1.15;;;;;;;;;;5092923;28;20031;-79
2023/01/04 00:09:07;;;;;;;2.53;1.42;;;;;;;;;;5074905;28;20048;-78
2023/01/04 00:11:33;;;;;;;2.47;1.20;;;;;;;;;;5093136;28;20534;-78
2023/01/04 00:13:58;;;;;;;2.28;0.93;;;;;;;;;;5074920;28;20186;-78
2023/01/04 00:16:25;;;;;;;3.50;1.30;;;;;;;;;;5093143;28;20028;-79
2023/01/04 00:18:52;;;;;;;7.90;1.35;;;;;;;;;;5074805;28;20099;-78
2023/01/04 00:21:23;;;;;;;2.35;1.20;;;;;;;;;;5058153;28;20028;-78
2023/01/04 00:23:51;;;;;;;2.30;1.05;;;;;;;;;;5092983;28;20028;-78
2023/01/04 00:26:27;;;;;;;2.10;1.20;;;;;;;;;;5075755;28;20459;-77
2023/01/04 00:29:02;;;;;;;2.17;1.10;;;;;;;;;;5078685;28;20070;-78
2023/01/04 00:31:27;;;;;;;2.72;1.25;;;;;;;;;;5079013;28;20030;-77
2023/01/04 00:33:57;;;;;;;2.22;1.30;;;;;;;;;;5079025;28;20115;-78
2023/01/04 00:36:23;;;;;;;3.63;1.15;;;;;;;;;;5078484;28;20089;-78
2023/01/04 00:39:05;;;;;;;4.40;1.45;;;;;;;;;;5078885;28;20028;-78
2023/01/04 00:41:41;;;;;;;2.08;1.02;;;;;;;;;;5081047;28;20074;-78
2023/01/04 00:44:07;;;;;;;2.30;1.10;;;;;;;;;;5078359;28;20313;-78
2023/01/04 00:46:36;;;;;;;3.00;1.30;;;;;;;;;;5097002;28;20032;-78
2023/01/04 00:49:02;;;;;;;1.60;1.10;;;;;;;;;;5078564;28;20532;-78
2023/01/04 00:51:28;;;;;;;2.17;1.23;;;;;;;;;;5078382;28;20024;-78
2023/01/04 00:53:54;;;;;;;1.10;0.90;;;;;;;;;;5061302;28;20489;-78
2023/01/04 00:56:20;;;;;;;2.53;1.23;;;;;;;;;;5078124;28;20024;-78
2023/01/04 00:58:45;;;;;;;1.77;1.00;;;;;;;;;;5078258;28;20061;-79
2023/01/04 01:01:10;;;;;;;2.50;1.15;;;;;;;;;;5078080;28;20035;-78
2023/01/04 01:03:36;;;;;;;2.08;0.88;;;;;;;;;;5096453;28;20028;-78
2023/01/04 01:06:04;;;;;;;4.93;1.23;;;;;;;;;;5078013;28;20497;-78
2023/01/04 01:08:29;;;;;;;1.95;1.10;;;;;;;;;;5078266;28;20042;-79
2023/01/04 01:11:06;;;;;;;2.55;1.10;;;;;;;;;;5095977;28;20044;-78
2023/01/04 01:13:32;;;;;;;2.65;1.10;;;;;;;;;;5078223;28;20016;-78
2023/01/04 01:16:10;;;;;;;3.03;1.40;;;;;;;;;;5077800;28;20036;-78
2023/01/04 01:18:37;;;;;;;1.45;0.93;;;;;;;;;;5077766;28;20020;-78
2023/01/04 01:21:07;;;;;;;3.90;1.17;;;;;;;;;;5060986;28;20058;-78
2023/01/04 01:23:33;;;;;;;2.03;0.95;;;;;;;;;;5077999;28;20024;-78
2023/01/04 01:26:00;;;;;;;2.55;1.10;;;;;;;;;;5096298;28;20028;-78
2023/01/04 01:28:26;;;;;;;1.52;0.95;;;;;;;;;;5095734;28;20432;-78
2023/01/04 01:30:52;;;;;;;1.38;0.90;;;;;;;;;;5061141;28;20070;-78
2023/01/04 01:33:17;;;;;;;3.30;1.08;;;;;;;;;;5095680;28;20028;-79
2023/01/04 01:35:42;;;;;;;2.08;1.13;;;;;;;;;;5077449;28;20035;-78
2023/01/04 01:38:08;;;;;;;1.77;1.02;;;;;;;;;;5077459;28;20016;-78
2023/01/04 01:40:33;;;;;;;3.05;1.10;;;;;;;;;;5077551;28;20024;-79
2023/01/04 01:42:58;;;;;;;2.78;1.00;;;;;;;;;;5095681;28;20462;-78
2023/01/04 01:45:32;;;;;;;3.80;0.98;;;;;;;;;;5095605;28;20039;-78
2023/01/04 01:48:09;;;;;;;0.88;0.88;;;;;;;;;;5077661;28;20035;-78
2023/01/04 01:50:43;;;;;;;1.17;0.90;;;;;;;;;;5077210;28;20032;-78
2023/01/04 01:53:10;;;;;;;2.83;0.80;;;;;;;;;;5077190;28;20402;-78
2023/01/04 01:55:35;;;;;;;3.85;1.10;;;;;;;;;;5077415;28;20107;-78
2023/01/04 01:58:02;;;;;;;1.08;0.90;;;;;;;;;;5077209;28;20532;-78
2023/01/04 02:00:28;;;;;;;2.92;0.80;;;;;;;;;;5095320;28;20038;-78
2023/01/04 02:02:59;;;;;;;2.03;0.90;;;;;;;;;;5094956;28;20031;-78
2023/01/04 02:05:24;;;;;;;1.30;0.70;;;;;;;;;;5076875;28;20024;-78
2023/01/04 02:07:50;;;;;;;1.50;0.80;;;;;;;;;;5076856;28;20101;-78
2023/01/04 02:10:16;;;;;;;1.38;0.88;;;;;;;;;;5076790;28;20156;-78
2023/01/04 02:12:43;;;;;;;1.30;0.90;;;;;;;;;;5077293;28;20074;-78
2023/01/04 02:15:08;;;;;;;3.58;0.82;;;;;;;;;;5076584;28;20028;-78
2023/01/04 02:17:52;;;;;;;0.90;0.63;;;;;;;;;;5094706;28;20108;-78
2023/01/04 02:20:23;;;;;;;3.25;0.90;;;;;;;;;;5076581;28;20019;-78
2023/01/04 02:23:39;;;;;;;0.57;0.57;;;;;;;;;;5076833;28;20020;-78
2023/01/04 02:26:30;;;;;;;1.00;0.75;;;;;;;;;;4993054;28;20030;-79
2023/01/04 02:29:11;;;;;;;1.35;0.85;;;;;;;;;;4977176;28;20073;-78
2023/01/04 02:31:57;;;;;;;1.95;0.90;;;;;;;;;;4977080;28;20161;-79
2023/01/04 02:34:41;;;;;;;1.05;0.77;;;;;;;;;;4992972;28;20491;-79
2023/01/04 02:37:09;;;;;;;0.97;0.63;;;;;;;;;;4992801;28;20034;-79
2023/01/04 02:39:52;;;;;;;0.60;0.60;;;;;;;;;;4992873;28;20391;-79
2023/01/04 02:45:44;;;;;;;1.20;0.80;;;;;;;;;;4976599;28;20076;-78
2023/01/04 02:50:58;;;;;;;1.45;0.73;;;;;;;;;;4978603;28;20180;-78
2023/01/04 02:53:27;;;;;;;0.70;0.70;;;;;;;;;;4976535;28;20077;-78
2023/01/04 02:56:12;;;;;;;0.60;0.60;;;;;;;;;;4976263;28;20126;-78
2023/01/04 02:58:55;;;;;;;0.93;0.60;;;;;;;;;;4992641;28;20054;-77
2023/01/04 03:07:42;;;;;;;0.63;0.50;;;;;;;;;;5093948;28;20145;-77
2023/01/04 03:10:15;;;;;;;2.65;1.00;;;;;;;;;;5093873;28;20048;-78
2023/01/04 03:12:46;;;;;;;0.80;0.70;;;;;;;;;;5076262;28;20118;-78
2023/01/04 03:15:21;;;;;;;0.52;0.50;;;;;;;;;;5059387;28;20089;-78
2023/01/04 03:17:59;;;;;;;1.40;0.70;;;;;;;;;;5075648;28;20197;-78
2023/01/04 03:20:28;;;;;;;0.68;0.60;;;;;;;;;;5075542;28;20518;-77
2023/01/04 03:37:31;;;;;;;1.08;0.55;;;;;;;;;;5093721;28;20424;-78
2023/01/04 03:48:57;;;;;;;1.75;0.77;;;;;;;;;;5078061;28;20047;-78
2023/01/04 03:51:28;;;;;;;1.95;0.60;;;;;;;;;;5093254;28;20428;-78
2023/01/04 03:54:07;;;;;;;1.23;0.70;;;;;;;;;;5075490;28;20024;-78
2023/01/04 03:56:35;;;;;;;2.13;0.65;;;;;;;;;;5093390;28;20024;-78
2023/01/04 03:59:01;;;;;;;1.00;0.63;;;;;;;;;;5075026;28;20042;-78
2023/01/04 04:01:27;;;;;;;0.60;0.60;;;;;;;;;;5092374;28;20028;-78
2023/01/04 04:09:20;;;;;;;0.70;0.70;;;;;;;;;;5077353;28;20410;-78
2023/01/04 04:11:46;;;;;;;0.80;0.70;;;;;;;;;;5074979;28;20028;-78
2023/01/04 04:14:11;;;;;;;0.60;0.60;;;;;;;;;;5092661;28;20024;-78
2023/01/04 04:16:37;;;;;;;1.70;0.65;;;;;;;;;;5074678;28;20028;-78
2023/01/04 04:19:02;;;;;;;0.75;0.68;;;;;;;;;;5093021;28;20099;-78
2023/01/04 04:21:27;;;;;;;0.60;0.60;;;;;;;;;;5092624;28;20410;-78
2023/01/04 04:23:56;;;;;;;0.52;0.52;;;;;;;;;;5075111;28;20036;-78
2023/01/04 04:26:22;;;;;;;0.70;0.70;;;;;;;;;;5074763;28;20032;-78
2023/01/04 04:28:48;;;;;;;0.90;0.90;;;;;;;;;;5093017;28;20023;-78
2023/01/04 04:31:13;;;;;;;0.50;0.50;;;;;;;;;;5057832;28;20031;-78
2023/01/04 04:33:39;;;;;;;0.98;0.73;;;;;;;;;;5074758;28;20077;-78
2023/01/04 04:36:05;;;;;;;0.70;0.70;;;;;;;;;;5092927;28;20437;-78
2023/01/04 04:38:30;;;;;;;0.77;0.77;;;;;;;;;;5074769;28;20040;-78
2023/01/04 04:43:39;;;;;;;1.00;0.63;;;;;;;;;;5092856;28;20031;-78
2023/01/04 04:46:05;;;;;;;0.60;0.60;;;;;;;;;;5092556;28;20040;-78
2023/01/04 04:48:30;;;;;;;0.50;0.50;;;;;;;;;;5092565;28;20024;-78
2023/01/04 04:50:56;;;;;;;0.90;0.60;;;;;;;;;;5074612;28;20451;-77
2023/01/04 04:53:21;;;;;;;0.77;0.50;;;;;;;;;;5092950;28;20031;-78
2023/01/04 04:55:50;;;;;;;1.13;0.65;;;;;;;;;;5092820;28;20032;-78
2023/01/04 04:58:16;;;;;;;1.02;0.70;;;;;;;;;;5074625;28;20023;-78
2023/01/04 05:00:41;;;;;;;0.50;0.50;;;;;;;;;;5074244;28;20061;-78
2023/01/04 05:03:07;;;;;;;0.52;0.52;;;;;;;;;;5074887;28;20493;-78
2023/01/04 05:05:33;;;;;;;0.80;0.80;;;;;;;;;;5093092;28;20028;-78
2023/01/04 05:07:58;;;;;;;0.70;0.70;;;;;;;;;;5093316;28;20473;-78
2023/01/04 05:10:23;;;;;;;0.85;0.60;;;;;;;;;;5058521;28;20094;-78
2023/01/04 05:13:01;;;;;;;2.03;1.00;;;;;;;;;;5056426;28;20032;-78
2023/01/04 05:15:39;;;;;;;1.10;0.70;;;;;;;;;;5053074;28;20077;-78
2023/01/04 05:18:05;;;;;;;0.52;0.52;;;;;;;;;;5041334;28;20031;-78
2023/01/04 05:20:31;;;;;;;0.77;0.77;;;;;;;;;;5058716;28;20040;-78
2023/01/04 05:22:57;;;;;;;0.80;0.60;;;;;;;;;;5076203;28;20028;-78
2023/01/04 05:25:22;;;;;;;0.60;0.60;;;;;;;;;;5076494;28;20028;-79
2023/01/04 05:27:48;;;;;;;0.60;0.60;;;;;;;;;;5058222;28;20115;-79
2023/01/04 05:32:59;;;;;;;1.08;0.82;;;;;;;;;;5061140;28;20399;-78
2023/01/04 05:35:24;;;;;;;0.73;0.73;;;;;;;;;;5058115;28;20025;-78
2023/01/04 05:37:50;;;;;;;1.70;0.75;;;;;;;;;;5076240;28;20186;-78
2023/01/04 05:40:15;;;;;;;1.00;0.80;;;;;;;;;;5076116;28;20597;-79
2023/01/04 05:42:41;;;;;;;0.60;0.60;;;;;;;;;;5058019;28;20025;-78
2023/01/04 05:45:07;;;;;;;0.80;0.80;;;;;;;;;;5057931;28;20039;-78
2023/01/04 05:47:33;;;;;;;2.65;1.13;;;;;;;;;;5075922;28;20086;-78
2023/01/04 05:49:58;;;;;;;4.90;1.30;;;;;;;;;;5070549;28;20029;-77
2023/01/04 05:52:24;;;;;;;1.33;0.90;;;;;;;;;;5038147;28;20043;-78
2023/01/04 05:54:49;;;;;;;5.63;1.45;;;;;;;;;;5055524;28;20029;-77
2023/01/04 05:57:15;;;;;;;8.15;1.50;;;;;;;;;;5021446;28;20059;-77
2023/01/04 05:59:40;;;;;;;7.88;1.48;;;;;;;;;;5037733;28;20029;-77
2023/01/04 06:02:09;;;;;;;4.00;1.70;;;;;;;;;;5055174;28;20029;-77
2023/01/04 06:04:35;;;;;;;4.00;1.40;;;;;;;;;;5020924;28;20025;-76
2023/01/04 06:07:00;;;;;;;3.90;1.70;;;;;;;;;;5037491;28;20033;-77
2023/01/04 06:09:26;;;;;;;4.28;1.60;;;;;;;;;;5063311;28;20056;-77
2023/01/04 06:11:52;;;;;;;3.42;1.48;;;;;;;;;;5062841;28;20028;-77
2023/01/04 06:14:17;;;;;;;5.10;1.60;;;;;;;;;;5095991;28;20028;-77
2023/01/04 06:16:43;;;;;;;3.08;1.50;;;;;;;;;;5094619;28;20036;-77
2023/01/04 06:19:08;;;;;;;3.60;1.25;;;;;;;;;;5095232;28;20024;-76
2023/01/04 06:21:33;;;;;;;1.60;1.08;;;;;;;;;;5077255;28;20551;-77
2023/01/04 06:23:59;;;;;;;3.85;1.25;;;;;;;;;;5076267;28;20038;-77
2023/01/04 06:26:24;;;;;;;6.20;1.30;;;;;;;;;;5095034;28;20020;-77
2023/01/04 06:28:49;;;;;;;2.05;1.25;;;;;;;;;;5095354;28;20024;-77
2023/01/04 06:31:15;;;;;;;3.97;1.48;;;;;;;;;;5076956;28;20455;-78
2023/01/04 06:33:40;;;;;;;2.67;1.20;;;;;;;;;;5077427;28;20042;-79
2023/01/04 06:36:06;;;;;;;2.05;1.13;;;;;;;;;;5077213;28;20081;-78
2023/01/04 06:38:32;;;;;;;3.30;1.20;;;;;;;;;;5093936;28;20035;-78
2023/01/04 06:40:57;;;;;;;2.70;0.90;;;;;;;;;;5060276;28;20475;-79
2023/01/04 06:43:23;;;;;;;3.22;1.45;;;;;;;;;;5076186;28;20032;-77
2023/01/04 06:45:49;;;;;;;1.73;1.17;;;;;;;;;;5059504;28;20039;-77
2023/01/04 06:48:14;;;;;;;1.73;0.75;;;;;;;;;;5092665;28;20028;-77
2023/01/04 06:50:39;;;;;;;1.45;0.95;;;;;;;;;;5076055;28;20553;-77
2023/01/04 06:53:05;;;;;;;1.80;0.90;;;;;;;;;;5093952;28;20036;-77
2023/01/04 06:55:30;;;;;;;1.92;0.90;;;;;;;;;;5094063;28;20028;-77
2023/01/04 06:57:56;;;;;;;0.70;0.70;;;;;;;;;;5093830;28;20106;-77
2023/01/04 07:00:22;;;;;;;0.82;0.68;;;;;;;;;;5075829;28;20028;-77
2023/01/04 07:02:47;;;;;;;1.77;0.80;;;;;;;;;;5075595;28;20028;-77
2023/01/04 07:05:12;;;;;;;0.80;0.80;;;;;;;;;;5093739;28;20393;-77
2023/01/04 07:07:38;;;;;;;0.75;0.63;;;;;;;;;;5075528;28;20085;-77
2023/01/04 07:10:04;;;;;;;1.38;0.60;;;;;;;;;;5093529;28;20162;-77
2023/01/04 07:12:29;;;;;;;1.95;0.65;;;;;;;;;;5075608;28;20115;-77
2023/01/04 07:14:55;;;;;;;1.75;0.95;;;;;;;;;;5093424;28;20032;-77
2023/01/04 07:17:20;;;;;;;1.65;1.10;;;;;;;;;;5075359;28;20039;-77
2023/01/04 07:19:45;;;;;;;1.15;0.90;;;;;;;;;;5075560;28;20499;-77
2023/01/04 07:22:11;;;;;;;1.00;0.60;;;;;;;;;;5075291;28;20028;-77
2023/01/04 07:24:36;;;;;;;0.82;0.82;;;;;;;;;;5093417;28;20107;-77
2023/01/04 07:27:02;;;;;;;2.55;0.95;;;;;;;;;;5093441;28;20501;-77
2023/01/04 07:29:27;;;;;;;1.58;0.80;;;;;;;;;;5075162;28;20028;-77
2023/01/04 07:31:53;;;;;;;1.20;0.90;;;;;;;;;;5075313;28;20059;-77
2023/01/04 07:34:21;;;;;;;1.50;0.80;;;;;;;;;;5058565;28;20040;-77
2023/01/04 07:36:48;;;;;;;1.08;0.68;;;;;;;;;;5093479;28;20150;-78
2023/01/04 07:39:13;;;;;;;1.35;0.63;;;;;;;;;;5054957;28;20031;-80
2023/01/04 07:41:39;;;;;;;1.67;0.80;;;;;;;;;;5091473;28;20032;-85
2023/01/04 07:44:06;;;;;;;3.05;0.80;;;;;;;;;;5078598;28;20016;-81
2023/01/04 07:46:32;;;;;;;0.63;0.63;;;;;;;;;;5075839;28;20081;-82
2023/01/04 07:48:57;;;;;;;1.23;0.88;;;;;;;;;;5079322;28;20024;-81
2023/01/04 07:51:23;;;;;;;1.40;0.80;;;;;;;;;;5076658;28;20042;-80
2023/01/04 07:53:49;;;;;;;3.05;1.00;;;;;;;;;;5095127;28;20099;-79
2023/01/04 07:56:14;;;;;;;3.53;0.80;;;;;;;;;;5076316;28;20028;-80
2023/01/04 07:58:40;;;;;;;4.85;1.13;;;;;;;;;;5094113;28;20024;-79
2023/01/04 08:01:11;;;;;;;2.25;1.05;;;;;;;;;;5093971;28;20474;-82
2023/01/04 08:03:37;;;;;;;2.17;0.90;;;;;;;;;;5076606;28;20028;-82
2023/01/04 08:06:07;;;;;;;1.48;0.80;;;;;;;;;;5094419;28;20032;-81
2023/01/04 08:08:33;;;;;;;3.25;0.95;;;;;;;;;;5058488;28;20032;-81
2023/01/04 08:11:19;;;;;;;2.53;0.90;;;;;;;;;;5075732;28;20399;-81
2023/01/04 08:13:44;;;;;;;1.42;0.98;;;;;;;;;;5075528;28;20490;-80
2023/01/04 08:16:42;;;;;;;3.90;1.17;;;;;;;;;;5058816;28;20040;-81
2023/01/04 08:19:13;;;;;;;2.78;0.80;;;;;;;;;;4997579;28;20033;-80
2023/01/04 08:21:39;;;;;;;1.23;0.70;;;;;;;;;;5058435;28;20032;-80
2023/01/04 08:24:05;;;;;;;1.92;1.00;;;;;;;;;;5093459;28;20035;-80
2023/01/04 08:26:31;;;;;;;0.88;0.70;;;;;;;;;;5075863;28;20043;-79
2023/01/04 08:28:56;;;;;;;1.33;0.82;;;;;;;;;;5075573;28;20020;-79
2023/01/04 08:31:25;;;;;;;1.30;0.60;;;;;;;;;;5076032;28;20073;-80
2023/01/04 08:33:52;;;;;;;2.20;0.73;;;;;;;;;;5076310;28;20020;-80
2023/01/04 08:36:32;;;;;;;0.98;0.70;;;;;;;;;;5056023;28;20031;-80
2023/01/04 08:39:05;;;;;;;1.25;0.68;;;;;;;;;;5041052;28;20041;-80
2023/01/04 08:41:32;;;;;;;2.58;0.90;;;;;;;;;;5076353;28;20026;-80
2023/01/04 08:43:58;;;;;;;1.55;0.90;;;;;;;;;;5075803;28;20484;-80
2023/01/04 08:46:23;;;;;;;1.95;0.90;;;;;;;;;;5059757;28;20067;-80
2023/01/04 08:48:50;;;;;;;1.00;0.65;;;;;;;;;;5079261;28;20028;-81
2023/01/04 08:51:16;;;;;;;2.03;0.75;;;;;;;;;;5079892;28;20028;-80
2023/01/04 08:53:42;;;;;;;0.73;0.57;;;;;;;;;;5080173;28;20027;-80
2023/01/04 08:56:08;;;;;;;1.85;0.70;;;;;;;;;;5097374;28;20032;-81
2023/01/04 08:58:35;;;;;;;2.20;0.57;;;;;;;;;;5079833;28;20042;-80
2023/01/04 09:01:05;;;;;;;0.63;0.60;;;;;;;;;;5062682;28;20038;-80
2023/01/04 09:03:31;;;;;;;0.88;0.68;;;;;;;;;;5063355;28;20036;-81
2023/01/04 09:06:05;;;;;;;2.53;0.50;;;;;;;;;;5092997;28;20551;-82
2023/01/04 09:08:35;;;;;;;0.65;0.55;;;;;;;;;;5097773;28;20042;-80
2023/01/04 09:11:11;;;;;;;1.92;0.55;;;;;;;;;;5100225;28;20036;-80
2023/01/04 09:13:37;;;;;;;2.33;0.70;;;;;;;;;;5087833;28;20032;-82
2023/01/04 09:16:05;;;;;;;0.60;0.60;;;;;;;;;;5101333;28;20059;-80
2023/01/04 09:18:32;;;;;;;0.50;0.50;;;;;;;;;;5100793;28;20039;-82
2023/01/04 09:20:57;;;;;;;9.00;0.77;;;;;;;;;;5087952;28;20181;-79
2023/01/04 09:23:23;;;;;;;0.70;0.50;;;;;;;;;;5098346;28;20498;-79
2023/01/04 09:25:48;;;;;;;1.42;0.52;;;;;;;;;;5060427;28;20035;-78
2023/01/04 09:28:14;;;;;;;1.85;0.40;;;;;;;;;;5077936;28;20072;-79
2023/01/04 09:30:39;;;;;;;0.85;0.60;;;;;;;;;;5071815;28;20134;-80
2023/01/04 09:33:05;;;;;;;1.02;0.30;;;;;;;;;;5098633;28;20039;-80
2023/01/04 09:35:30;;;;;;;0.60;0.55;;;;;;;;;;5099292;28;20032;-80
2023/01/04 09:37:56;;;;;;;2.08;0.60;;;;;;;;;;5080299;28;20115;-79
2023/01/04 09:40:30;;;;;;;0.40;0.40;;;;;;;;;;5075016;28;20039;-81
2023/01/04 09:42:57;;;;;;;0.68;0.40;;;;;;;;;;5057961;28;20039;-80
2023/01/04 09:45:25;;;;;;;1.75;0.50;;;;;;;;;;5095505;28;20032;-83
2023/01/04 09:47:58;;;;;;;0.73;0.30;;;;;;;;;;5096477;28;20073;-82
2023/01/04 09:50:27;;;;;;;1.40;0.63;;;;;;;;;;5080689;28;20119;-81
2023/01/04 09:53:03;;;;;;;1.35;0.60;;;;;;;;;;5078744;28;20073;-80
2023/01/04 09:55:37;;;;;;;5.65;0.73;;;;;;;;;;5075822;28;20509;-81
2023/01/04 09:58:07;;;;;;;1.35;0.43;;;;;;;;;;5060809;28;20034;-80
2023/01/04 10:00:44;;;;;;;0.32;0.30;;;;;;;;;;5076255;28;20046;-80
2023/01/04 10:03:34;;;;;;;0.43;0.43;;;;;;;;;;5077842;28;20039;-80
2023/01/04 10:05:59;;;;;;;0.47;0.38;;;;;;;;;;5057664;28;20024;-80
2023/01/04 10:08:25;;;;;;;1.98;0.35;;;;;;;;;;5041053;28;20490;-80
2023/01/04 10:11:15;;;;;;;1.45;0.80;;;;;;;;;;5022875;28;20057;-82
2023/01/04 10:13:47;;;;;;;3.20;0.50;;;;;;;;;;5039479;28;20051;-78
2023/01/04 10:16:18;;;;;;;0.45;0.43;;;;;;;;;;5054541;28;20459;-79
2023/01/04 10:19:12;;;;;;;1.20;0.40;;;;;;;;;;5043316;28;20426;-79
2023/01/04 10:21:50;;;;;;;1.73;0.40;;;;;;;;;;5067340;28;20074;-81
2023/01/04 10:24:49;;;;;;;1.35;0.50;;;;;;;;;;5057234;28;20094;-79
2023/01/04 10:27:22;;;;;;;1.17;0.47;;;;;;;;;;5057667;28;20021;-76
2023/01/04 10:29:55;;;;;;;0.88;0.60;;;;;;;;;;5057334;28;20036;-79
2023/01/04 10:32:41;;;;;;;0.40;0.40;;;;;;;;;;5058917;28;20082;-79
2023/01/04 10:35:20;;;;;;;0.22;0.22;;;;;;;;;;5057691;28;20024;-77
2023/01/04 10:37:47;;;;;;;2.10;0.50;;;;;;;;;;5057593;28;20036;-77
2023/01/04 10:40:15;;;;;;;0.93;0.47;;;;;;;;;;5056898;28;20170;-78
2023/01/04 10:43:02;;;;;;;0.73;0.50;;;;;;;;;;5057176;28;20043;-80
2023/01/04 10:45:34;;;;;;;1.35;0.47;;;;;;;;;;5056476;28;20433;-77
2023/01/04 10:48:20;;;;;;;0.38;0.38;;;;;;;;;;5056867;28;20071;-78
2023/01/04 10:50:57;;;;;;;0.85;0.40;;;;;;;;;;5074684;28;20027;-81
2023/01/04 10:53:45;;;;;;;0.80;0.45;;;;;;;;;;5040148;28;20029;-85
2023/01/04 10:56:34;;;;;;;4.65;0.43;;;;;;;;;;5054812;28;20097;-81
2023/01/04 10:59:02;;;;;;;0.70;0.35;;;;;;;;;;5036592;28;20016;-83
2023/01/04 11:01:32;;;;;;;0.45;0.45;;;;;;;;;;5053450;28;20029;-82
2023/01/04 11:04:05;;;;;;;0.90;0.60;;;;;;;;;;5021808;28;20025;-81
2023/01/04 11:06:34;;;;;;;0.73;0.50;;;;;;;;;;5056739;28;20024;-82
2023/01/04 11:09:02;;;;;;;1.17;0.38;;;;;;;;;;5040756;28;20395;-82
2023/01/04 11:11:44;;;;;;;1.02;0.50;;;;;;;;;;5056693;28;20032;-81
2023/01/04 11:14:10;;;;;;;1.52;0.43;;;;;;;;;;5040091;28;20017;-82
2023/01/04 11:16:37;;;;;;;3.72;0.30;;;;;;;;;;5057230;28;20039;-79
2023/01/04 11:19:03;;;;;;;0.50;0.50;;;;;;;;;;5057271;28;20091;-80
2023/01/04 11:21:34;;;;;;;0.73;0.30;;;;;;;;;;5075888;28;20028;-81
2023/01/04 11:24:02;;;;;;;0.40;0.40;;;;;;;;;;5041333;28;20390;-81
2023/01/04 11:26:48;;;;;;;1.58;1.00;;;;;;;;;;5040957;28;20035;-80
2023/01/04 11:29:46;;;;;;;0.50;0.43;;;;;;;;;;5040284;28;20533;-79
2023/01/04 11:32:30;;;;;;;1.05;0.70;;;;;;;;;;5053780;28;20049;-77
2023/01/04 11:34:58;;;;;;;0.38;0.38;;;;;;;;;;5055535;28;20028;-78
2023/01/04 11:37:32;;;;;;;1.77;0.28;;;;;;;;;;5073399;28;20048;-78
2023/01/04 11:40:16;;;;;;;0.50;0.50;;;;;;;;;;5055431;28;20023;-78
2023/01/04 11:42:42;;;;;;;1.35;0.50;;;;;;;;;;5073280;28;20032;-78
2023/01/04 11:45:26;;;;;;;0.45;0.45;;;;;;;;;;5055124;28;20111;-77
2023/01/04 11:47:54;;;;;;;1.85;0.57;;;;;;;;;;5055216;28;20028;-78
2023/01/04 11:50:42;;;;;;;1.88;0.50;;;;;;;;;;5073245;28;20032;-78
2023/01/04 11:53:27;;;;;;;0.80;0.35;;;;;;;;;;5038745;28;20032;-78
2023/01/04 11:56:12;;;;;;;3.33;0.60;;;;;;;;;;5073073;28;20027;-79
2023/01/04 11:58:38;;;;;;;0.75;0.40;;;;;;;;;;5073207;28;20021;-80
2023/01/04 12:01:04;;;;;;;0.30;0.30;;;;;;;;;;5038272;28;20024;-80
2023/01/04 12:03:37;;;;;;;0.28;0.28;;;;;;;;;;5038834;28;20036;-78
2023/01/04 12:06:12;;;;;;;2.30;0.95;;;;;;;;;;5038784;28;20031;-78
2023/01/04 12:08:38;;;;;;;2.22;0.88;;;;;;;;;;5055761;28;20024;-78
2023/01/04 12:11:04;;;;;;;3.40;0.60;;;;;;;;;;5074275;28;20129;-78
2023/01/04 12:13:34;;;;;;;3.20;0.50;;;;;;;;;;5055460;28;20024;-79
2023/01/04 12:16:18;;;;;;;4.03;0.70;;;;;;;;;;5039123;28;20029;-79
2023/01/04 12:18:44;;;;;;;0.95;0.70;;;;;;;;;;5073844;28;20028;-79
2023/01/04 12:21:24;;;;;;;1.55;0.60;;;;;;;;;;5055251;28;20035;-79
2023/01/04 12:23:51;;;;;;;1.63;0.70;;;;;;;;;;5058738;28;20119;-79
2023/01/04 12:26:17;;;;;;;2.83;0.90;;;;;;;;;;5059926;28;20031;-77
2023/01/04 12:28:45;;;;;;;2.25;1.27;;;;;;;;;;5059997;28;20032;-77
2023/01/04 12:31:20;;;;;;;3.92;1.25;;;;;;;;;;5042592;28;20412;-77
2023/01/04 12:33:45;;;;;;;2.22;1.60;;;;;;;;;;5077355;28;20108;-78
2023/01/04 12:36:37;;;;;;;4.93;1.40;;;;;;;;;;5059462;28;20086;-78
2023/01/04 12:39:14;;;;;;;4.75;1.77;;;;;;;;;;5069744;28;20040;-78
2023/01/04 12:41:39;;;;;;;4.35;1.70;;;;;;;;;;5077165;28;20024;-77
2023/01/04 12:44:36;;;;;;;4.00;1.42;;;;;;;;;;5077287;28;20035;-78
2023/01/04 12:49:55;;;;;;;3.97;2.00;;;;;;;;;;5061784;28;20148;-78
2023/01/04 12:52:21;;;;;;;3.88;2.17;;;;;;;;;;5077131;28;20039;-78
2023/01/04 12:54:56;;;;;;;3.85;1.92;;;;;;;;;;5078313;28;20028;-78
2023/01/04 12:57:39;;;;;;;4.03;2.10;;;;;;;;;;5058638;28;20039;-80
2023/01/04 13:00:12;;;;;;;4.65;1.85;;;;;;;;;;5076019;28;20050;-78
2023/01/04 13:02:43;;;;;;;3.37;1.73;;;;;;;;;;5075366;28;20025;-78
2023/01/04 13:05:18;;;;;;;4.25;1.90;;;;;;;;;;5075375;28;20024;-78
2023/01/04 13:07:52;;;;;;;3.65;1.55;;;;;;;;;;5075729;28;20036;-78
2023/01/04 13:10:34;;;;;;;4.57;1.95;;;;;;;;;;5051592;28;20140;-79
2023/01/04 13:13:21;;;;;;;4.15;1.73;;;;;;;;;;5076138;28;20028;-79
2023/01/04 13:16:24;;;;;;;4.78;2.05;;;;;;;;;;5096910;28;20028;-78
2023/01/04 13:18:53;;;;;;;3.03;1.60;;;;;;;;;;5096520;28;20103;-78
2023/01/04 13:21:30;;;;;;;4.88;1.75;;;;;;;;;;5061783;28;20531;-79
2023/01/04 13:23:59;;;;;;;5.72;2.13;;;;;;;;;;5096452;28;20032;-78
2023/01/04 13:26:31;;;;;;;3.30;1.65;;;;;;;;;;5061635;28;20062;-78
2023/01/04 13:29:17;;;;;;;4.43;1.30;;;;;;;;;;5096359;28;20433;-79
2023/01/04 13:31:53;;;;;;;3.40;1.63;;;;;;;;;;5096441;28;20470;-79
2023/01/04 13:34:24;;;;;;;4.30;1.90;;;;;;;;;;5077945;28;20063;-79
2023/01/04 13:36:54;;;;;;;7.80;2.42;;;;;;;;;;5094494;28;20578;-77
2023/01/04 13:39:20;;;;;;;7.07;2.10;;;;;;;;;;5082142;28;20367;-78
2023/01/04 13:41:45;;;;;;;3.30;1.55;;;;;;;;;;5093260;28;20031;-78
2023/01/04 13:44:31;;;;;;;10.85;2.00;;;;;;;;;;5058285;28;20097;-78
2023/01/04 13:46:57;;;;;;;5.45;2.00;;;;;;;;;;5075804;28;20028;-78
2023/01/04 13:49:22;;;;;;;5.60;2.05;;;;;;;;;;5044246;28;20032;-78
2023/01/04 13:51:47;;;;;;;5.20;2.08;;;;;;;;;;5055368;28;20027;-78
2023/01/04 13:54:19;;;;;;;4.88;1.50;;;;;;;;;;5076791;28;20084;-78
2023/01/04 13:56:45;;;;;;;3.38;1.50;;;;;;;;;;5060654;28;20054;-78
2023/01/04 13:59:10;;;;;;;8.10;1.75;;;;;;;;;;5078018;28;20056;-78
2023/01/04 14:01:49;;;;;;;4.32;1.73;;;;;;;;;;5077871;28;20031;-78
2023/01/04 14:04:26;;;;;;;4.13;1.67;;;;;;;;;;5061096;28;20028;-78
2023/01/04 14:06:53;;;;;;;5.90;1.67;;;;;;;;;;5060743;28;20031;-78
2023/01/04 14:09:24;;;;;;;4.28;1.73;;;;;;;;;;5077330;28;20067;-78
2023/01/04 14:12:13;;;;;;;4.35;1.50;;;;;;;;;;5095538;28;20035;-78
2023/01/04 14:14:47;;;;;;;5.78;1.80;;;;;;;;;;5077161;28;20020;-78
2023/01/04 14:17:16;;;;;;;4.15;1.40;;;;;;;;;;5077017;28;20028;-78
2023/01/04 14:19:45;;;;;;;4.03;1.70;;;;;;;;;;5094998;28;20016;-78
2023/01/04 14:22:19;;;;;;;3.35;1.50;;;;;;;;;;5094788;28;20026;-77
2023/01/04 14:24:45;;;;;;;6.03;1.90;;;;;;;;;;5094867;28;20142;-77
2023/01/04 14:27:40;;;;;;;3.70;1.63;;;;;;;;;;5077180;28;20481;-78
2023/01/04 14:30:17;;;;;;;4.88;1.55;;;;;;;;;;5059932;28;20103;-78
2023/01/04 14:33:16;;;;;;;4.00;1.70;;;;;;;;;;5076560;28;20034;-78
2023/01/04 14:35:42;;;;;;;5.78;1.75;;;;;;;;;;5074348;28;20386;-78
2023/01/04 14:38:16;;;;;;;3.88;1.42;;;;;;;;;;5042034;28;20028;-79
2023/01/04 14:40:42;;;;;;;10.13;2.08;;;;;;;;;;5077522;28;20031;-79
2023/01/04 14:43:34;;;;;;;5.88;1.73;;;;;;;;;;5076837;28;20024;-79
2023/01/04 14:45:59;;;;;;;5.13;2.22;;;;;;;;;;5075546;28;20024;-80
2023/01/04 14:48:25;;;;;;;4.25;1.70;;;;;;;;;;5059642;28;20028;-80
2023/01/04 14:50:50;;;;;;;6.68;1.80;;;;;;;;;;5076138;28;20040;-83
2023/01/04 14:53:17;;;;;;;5.32;1.60;;;;;;;;;;5094083;28;20478;-80
2023/01/04 14:55:43;;;;;;;3.90;1.77;;;;;;;;;;5094628;28;20500;-80
2023/01/04 14:58:08;;;;;;;3.72;1.73;;;;;;;;;;5076766;28;20466;-80
2023/01/04 15:00:34;;;;;;;6.38;2.03;;;;;;;;;;5110378;28;20034;-80
2023/01/04 15:02:59;;;;;;;5.10;2.00;;;;;;;;;;5076626;28;20444;-80
2023/01/04 15:05:25;;;;;;;3.83;1.73;;;;;;;;;;5076649;28;20028;-80
2023/01/04 15:07:51;;;;;;;3.80;1.58;;;;;;;;;;5076495;28;20420;-80
2023/01/04 15:10:25;;;;;;;4.32;1.58;;;;;;;;;;5059733;28;20063;-80
2023/01/04 15:12:50;;;;;;;4.32;1.50;;;;;;;;;;5094773;28;20028;-80
2023/01/04 15:15:16;;;;;;;5.30;2.35;;;;;;;;;;5059776;28;20367;-80
2023/01/04 15:17:41;;;;;;;7.78;2.25;;;;;;;;;;5076290;28;20043;-80
2023/01/04 15:20:08;;;;;;;6.43;1.98;;;;;;;;;;5076776;28;20035;-79
2023/01/04 15:22:33;;;;;;;4.68;1.80;;;;;;;;;;5096016;28;20035;-79
2023/01/04 15:24:58;;;;;;;6.13;1.80;;;;;;;;;;5076756;28;20028;-79
2023/01/04 15:27:24;;;;;;;7.63;2.20;;;;;;;;;;5076604;28;20032;-79
2023/01/04 15:29:49;;;;;;;6.65;2.20;;;;;;;;;;5096034;28;20032;-79
2023/01/04 15:32:15;;;;;;;4.15;1.65;;;;;;;;;;5079123;28;20034;-79
2023/01/04 15:34:40;;;;;;;3.67;1.75;;;;;;;;;;5097114;28;20028;-79
2023/01/04 15:37:06;;;;;;;9.27;2.40;;;;;;;;;;5098264;28;20031;-79
2023/01/04 15:39:31;;;;;;;6.05;1.90;;;;;;;;;;5081548;28;20020;-79
2023/01/04 15:44:42;;;;;;;4.88;1.33;;;;;;;;;;5097721;28;20165;-79
2023/01/04 15:47:07;;;;;;;4.70;1.88;;;;;;;;;;5077828;28;20036;-78
2023/01/04 15:49:33;;;;;;;6.22;1.88;;;;;;;;;;5095509;28;20028;-78
2023/01/04 15:51:58;;;;;;;5.82;1.65;;;;;;;;;;5109811;28;20433;-78
2023/01/04 15:54:25;;;;;;;5.35;1.80;;;;;;;;;;5109594;28;20470;-77